createdAt,value
2018-04-23T18:00:20.603Z,18.00
2018-04-23T18:02:49.076Z,17.90
2018-04-23T18:05:16.738Z,17.80
2018-04-23T18:07:44.458Z,17.80
2018-04-23T18:10:14.002Z,17.60
2018-04-23T18:12:41.674Z,17.60
2018-04-23T18:15:10.164Z,17.50
2018-04-23T18:17:38.621Z,17.40
2018-04-23T18:20:06.323Z,17.30
2018-04-23T18:22:34.032Z,17.30
2018-04-23T18:25:01.758Z,17.20
2018-04-23T18:27:29.554Z,17.10
2018-04-23T18:29:57.220Z,17.00
2018-04-23T18:32:24.924Z,16.90
2018-04-23T18:34:53.350Z,16.70
2018-04-23T18:37:21.060Z,16.70
2018-04-23T18:39:49.551Z,16.60
2018-04-23T18:42:18.289Z,16.50
2018-04-23T18:44:47.101Z,16.50
2018-04-23T18:47:14.807Z,16.40
2018-04-23T18:49:43.383Z,16.40
2018-04-23T18:52:11.540Z,16.30
2018-04-23T18:54:40.437Z,16.20
2018-04-23T18:57:09.864Z,16.10
2018-04-23T18:59:37.515Z,16.10
2018-04-23T19:02:05.215Z,16.10
2018-04-23T19:04:32.892Z,16.00
2018-04-23T19:07:00.608Z,16.00
2018-04-23T19:09:28.314Z,15.90
2018-04-23T19:11:56.825Z,15.80
2018-04-23T19:14:25.243Z,15.70
2018-04-23T19:16:52.951Z,15.60
2018-04-23T19:19:21.393Z,15.50
2018-04-23T19:21:49.164Z,15.50
2018-04-23T19:24:16.813Z,15.40
2018-04-23T19:26:44.515Z,15.30
2018-04-23T19:29:13.118Z,15.20
2018-04-23T19:31:41.602Z,15.10
2018-04-23T19:34:10.035Z,15.00
2018-04-23T19:36:37.722Z,15.00
2018-04-23T19:39:06.153Z,14.90
2018-04-23T19:41:33.838Z,14.80
2018-04-23T19:44:01.495Z,14.70
2018-04-23T19:46:29.187Z,14.70
2018-04-23T19:48:56.868Z,14.60
2018-04-23T19:51:25.341Z,14.40
2018-04-23T19:53:53.780Z,14.30
2018-04-23T19:56:21.487Z,14.30
2018-04-23T19:58:49.912Z,14.10
2018-04-23T20:01:17.743Z,14.00
2018-04-23T20:03:46.174Z,14.00
2018-04-23T20:06:13.853Z,13.90
2018-04-23T20:08:41.535Z,13.90
2018-04-23T20:11:09.991Z,13.70
2018-04-23T20:13:37.702Z,13.70
2018-04-23T20:16:05.376Z,13.70
2018-04-23T20:18:33.143Z,13.60
2018-04-23T20:21:00.808Z,13.50
2018-04-23T20:23:28.464Z,13.40
2018-04-23T20:25:56.163Z,13.30
2018-04-23T20:28:23.863Z,13.30
2018-04-23T20:30:52.290Z,13.20
2018-04-23T20:33:19.979Z,13.20
2018-04-23T20:35:47.718Z,13.10
2018-04-23T20:38:15.380Z,13.10
2018-04-23T20:40:43.086Z,13.00
2018-04-23T20:43:11.507Z,12.90
2018-04-23T20:45:39.196Z,12.90
2018-04-23T20:48:06.863Z,12.80
2018-04-23T20:50:34.651Z,12.80
2018-04-23T20:53:02.263Z,12.70
2018-04-23T20:55:29.921Z,12.70
2018-04-23T20:57:57.610Z,12.60
2018-04-23T21:00:25.265Z,12.50
2018-04-23T21:02:52.963Z,12.50
2018-04-23T21:05:21.382Z,12.40
2018-04-23T21:07:51.005Z,12.40
2018-04-23T21:10:18.699Z,12.40
2018-04-23T21:12:46.386Z,12.30
2018-04-23T21:15:14.066Z,12.30
2018-04-23T21:17:41.762Z,12.30
2018-04-23T21:20:09.419Z,12.20
2018-04-23T21:22:37.106Z,12.20
2018-04-23T21:25:04.790Z,12.10
2018-04-23T21:27:33.208Z,12.10
2018-04-23T21:30:00.907Z,12.00
2018-04-23T21:32:28.620Z,12.00
2018-04-23T21:34:56.345Z,12.00
2018-04-23T21:37:24.812Z,11.90
2018-04-23T21:39:52.501Z,11.90
2018-04-23T21:42:20.210Z,11.90
2018-04-23T21:44:47.877Z,11.90
2018-04-23T21:47:15.567Z,11.90
2018-04-23T21:49:43.250Z,11.80
2018-04-23T21:52:10.944Z,11.80
2018-04-23T21:54:38.603Z,11.80
2018-04-23T21:57:06.292Z,11.70
2018-04-23T21:59:33.987Z,11.60
2018-04-23T22:02:02.470Z,11.50
2018-04-23T22:04:30.130Z,11.50
2018-04-23T22:06:57.839Z,11.50
2018-04-23T22:09:25.499Z,11.40
2018-04-23T22:11:53.200Z,11.40
2018-04-23T22:14:20.867Z,11.30
2018-04-23T22:16:48.564Z,11.30
2018-04-23T22:19:17.272Z,11.30
2018-04-23T22:21:44.986Z,11.20
2018-04-23T22:24:13.443Z,11.10
2018-04-23T22:26:41.104Z,11.10
2018-04-23T22:29:08.790Z,11.10
2018-04-23T22:31:37.266Z,11.00
2018-04-23T22:34:05.704Z,11.00
2018-04-23T22:36:33.403Z,11.00
2018-04-23T22:39:01.095Z,10.90
2018-04-23T22:41:28.762Z,10.90
2018-04-23T22:43:56.451Z,10.80
2018-04-23T22:46:24.111Z,10.80
2018-04-23T22:48:51.888Z,10.80
2018-04-23T22:51:19.539Z,10.70
2018-04-23T22:53:47.231Z,10.70
2018-04-23T22:56:14.887Z,10.70
2018-04-23T22:58:42.627Z,10.60
2018-04-23T23:01:10.290Z,10.60
2018-04-23T23:03:37.976Z,10.60
2018-04-23T23:06:05.679Z,10.60
2018-04-23T23:08:34.139Z,10.50
2018-04-23T23:11:02.605Z,10.60
2018-04-23T23:13:30.285Z,10.50
2018-04-23T23:15:58.794Z,10.50
2018-04-23T23:18:26.460Z,10.50
2018-04-23T23:20:54.143Z,10.50
2018-04-23T23:23:21.795Z,10.40
2018-04-23T23:25:49.488Z,10.40
2018-04-23T23:28:17.176Z,10.40
2018-04-23T23:30:45.646Z,10.30
2018-04-23T23:33:13.363Z,10.30
2018-04-23T23:35:41.060Z,10.30
2018-04-23T23:38:08.773Z,10.30
2018-04-23T23:40:36.467Z,10.30
2018-04-23T23:43:04.130Z,10.30
2018-04-23T23:45:31.819Z,10.30
2018-04-23T23:47:59.504Z,10.20
2018-04-23T23:50:27.927Z,10.20
2018-04-23T23:52:55.624Z,10.20
2018-04-23T23:55:23.301Z,10.20
2018-04-23T23:57:51.767Z,10.20
